createdAt,value
2022-11-05T00:00:42.415Z,4.39
2022-11-05T00:03:45.634Z,4.38
2022-11-05T00:06:49.113Z,4.37
2022-11-05T00:09:35.113Z,4.37
2022-11-05T00:12:38.366Z,4.35
2022-11-05T00:15:41.737Z,4.39
2022-11-05T00:18:26.738Z,4.41
2022-11-05T00:21:30.391Z,4.42
2022-11-05T00:24:35.567Z,4.46
2022-11-05T00:27:20.478Z,4.43
2022-11-05T00:30:06.972Z,4.44
2022-11-05T00:32:52.930Z,4.40
2022-11-05T00:35:37.946Z,4.40
2022-11-05T00:38:23.517Z,4.39
2022-11-05T00:41:08.474Z,4.38
2022-11-05T00:44:12.068Z,4.38
2022-11-05T00:47:16.991Z,4.34
2022-11-05T00:50:01.703Z,4.26
2022-11-05T00:52:55.205Z,4.27
2022-11-05T00:55:42.628Z,4.24
2022-11-05T00:58:28.542Z,4.22
2022-11-05T01:01:14.375Z,4.21
2022-11-05T01:03:59.002Z,4.22
2022-11-05T01:06:44.389Z,4.24
2022-11-05T01:09:28.944Z,4.26
2022-11-05T01:12:14.011Z,4.27
2022-11-05T01:15:00.285Z,4.27
2022-11-05T01:17:45.058Z,4.27
2022-11-05T01:20:30.475Z,4.29
2022-11-05T01:23:16.470Z,4.25
2022-11-05T01:26:01.530Z,4.28
2022-11-05T01:28:51.306Z,4.28
2022-11-05T01:31:36.025Z,4.25
2022-11-05T01:34:21.008Z,4.27
2022-11-05T01:37:06.047Z,4.26
2022-11-05T01:39:51.032Z,4.27
2022-11-05T01:42:35.983Z,4.30
2022-11-05T01:45:26.829Z,4.34
2022-11-05T01:48:32.545Z,4.33
2022-11-05T01:51:21.195Z,4.33
2022-11-05T01:54:10.831Z,4.34
2022-11-05T01:57:00.976Z,4.36
2022-11-05T01:59:54.015Z,4.37
2022-11-05T02:02:39.403Z,4.37
2022-11-05T02:05:28.059Z,4.38
2022-11-05T02:08:24.337Z,4.40
2022-11-05T02:11:12.939Z,4.42
2022-11-05T02:13:57.658Z,4.43
2022-11-05T02:16:54.898Z,4.46
2022-11-05T02:19:42.856Z,4.48
2022-11-05T02:22:58.452Z,4.49
2022-11-05T02:26:04.940Z,4.52
2022-11-05T02:28:49.478Z,4.54
2022-11-05T02:32:03.351Z,4.56
2022-11-05T02:34:58.255Z,4.57
2022-11-05T02:37:53.756Z,4.55
2022-11-05T02:40:53.906Z,4.59
2022-11-05T02:43:44.641Z,4.61
2022-11-05T02:46:53.061Z,4.58
2022-11-05T02:49:37.836Z,4.63
2022-11-05T02:52:33.465Z,4.64
2022-11-05T02:55:39.684Z,4.64
2022-11-05T02:58:28.512Z,4.63
2022-11-05T03:01:13.825Z,4.61
2022-11-05T03:04:05.794Z,4.62
2022-11-05T03:06:57.088Z,4.63
2022-11-05T03:09:49.367Z,4.63
2022-11-05T03:12:57.935Z,4.66
2022-11-05T03:15:54.973Z,4.68
2022-11-05T03:18:45.576Z,4.72
2022-11-05T03:21:45.837Z,4.72
2022-11-05T03:24:33.870Z,4.75
2022-11-05T03:27:26.698Z,4.74
2022-11-05T03:30:13.354Z,4.74
2022-11-05T03:33:02.767Z,4.75
2022-11-05T03:35:55.761Z,4.76
2022-11-05T03:38:43.511Z,4.75
2022-11-05T03:41:29.374Z,4.76
2022-11-05T03:44:21.381Z,4.78
2022-11-05T03:47:12.203Z,4.80
2022-11-05T03:50:12.430Z,4.81
2022-11-05T03:53:03.828Z,4.84
2022-11-05T03:56:23.210Z,4.84
2022-11-05T03:59:10.237Z,4.85
2022-11-05T04:01:55.787Z,4.83
2022-11-05T04:04:41.144Z,4.85
2022-11-05T04:07:44.403Z,4.86
2022-11-05T04:10:47.297Z,4.84
2022-11-05T04:13:32.876Z,4.85
2022-11-05T04:16:36.381Z,4.83
2022-11-05T04:19:41.431Z,4.83
2022-11-05T04:22:47.042Z,4.80
2022-11-05T04:25:32.151Z,4.83
2022-11-05T04:28:17.217Z,4.83
2022-11-05T04:31:01.777Z,4.82
2022-11-05T04:33:46.660Z,4.83
2022-11-05T04:36:31.646Z,4.82
2022-11-05T04:39:17.625Z,4.83
2022-11-05T04:42:02.600Z,4.83
2022-11-05T04:44:47.643Z,4.81
2022-11-05T04:47:32.585Z,4.80
2022-11-05T04:50:17.783Z,4.77
2022-11-05T04:53:02.766Z,4.79
2022-11-05T04:55:47.528Z,4.77
2022-11-05T04:58:32.313Z,4.72
2022-11-05T05:01:18.597Z,4.75
2022-11-05T05:04:03.418Z,4.73
2022-11-05T05:06:48.282Z,4.75
2022-11-05T05:09:33.307Z,4.72
2022-11-05T05:12:18.274Z,4.77
2022-11-05T05:15:04.532Z,4.77
2022-11-05T05:17:51.193Z,4.76
2022-11-05T05:20:54.403Z,4.80
2022-11-05T05:23:39.195Z,4.85
2022-11-05T05:26:23.809Z,4.84
2022-11-05T05:29:10.240Z,4.83
2022-11-05T05:31:54.793Z,4.88
2022-11-05T05:34:39.930Z,4.91
2022-11-05T05:37:24.849Z,4.88
2022-11-05T05:40:10.569Z,4.92
2022-11-05T05:42:55.560Z,4.94
2022-11-05T05:45:40.453Z,4.92
2022-11-05T05:48:25.471Z,4.94
2022-11-05T05:51:11.260Z,4.97
2022-11-05T05:53:56.267Z,5.01
2022-11-05T05:56:45.147Z,5.04
2022-11-05T05:59:29.919Z,5.06
2022-11-05T06:02:15.204Z,5.08
2022-11-05T06:04:59.852Z,5.13
2022-11-05T06:07:44.916Z,5.17
2022-11-05T06:10:29.889Z,5.21
2022-11-05T06:13:14.785Z,5.24
2022-11-05T06:16:09.467Z,5.32
2022-11-05T06:18:54.079Z,5.33
2022-11-05T06:21:38.969Z,5.39
2022-11-05T06:24:24.122Z,5.43
2022-11-05T06:27:08.933Z,5.47
2022-11-05T06:29:54.028Z,5.51
2022-11-05T06:32:38.947Z,5.61
2022-11-05T06:35:23.949Z,5.71
2022-11-05T06:38:08.834Z,5.78
2022-11-05T06:40:53.382Z,5.81
2022-11-05T06:43:38.441Z,5.84
2022-11-05T06:46:23.166Z,5.86
2022-11-05T06:49:08.216Z,5.88
2022-11-05T06:51:53.235Z,5.91
2022-11-05T06:54:38.562Z,5.95
2022-11-05T06:57:23.280Z,5.99
2022-11-05T07:00:08.697Z,6.00
2022-11-05T07:02:55.260Z,6.00
2022-11-05T07:05:45.774Z,6.02
2022-11-05T07:08:32.131Z,6.01
2022-11-05T07:11:17.696Z,5.99
2022-11-05T07:14:02.355Z,6.02
2022-11-05T07:16:47.276Z,6.01
2022-11-05T07:19:32.344Z,6.02
2022-11-05T07:22:17.192Z,6.04
2022-11-05T07:25:01.753Z,6.07
2022-11-05T07:27:46.394Z,6.08
2022-11-05T07:30:32.923Z,6.14
2022-11-05T07:33:17.428Z,6.19
2022-11-05T07:36:02.616Z,6.26
2022-11-05T07:38:47.595Z,6.26
2022-11-05T07:41:32.665Z,6.33
2022-11-05T07:44:17.536Z,6.44
2022-11-05T07:47:02.354Z,6.51
2022-11-05T07:49:47.287Z,6.57
2022-11-05T07:52:32.739Z,6.62
2022-11-05T07:55:19.317Z,6.69
2022-11-05T07:58:03.980Z,6.76
2022-11-05T08:00:49.013Z,6.81
2022-11-05T08:03:34.405Z,6.92
2022-11-05T08:06:19.292Z,6.95
2022-11-05T08:09:04.333Z,6.93
2022-11-05T08:11:52.827Z,6.89
2022-11-05T08:14:37.720Z,6.87
2022-11-05T08:17:22.779Z,6.86
2022-11-05T08:20:08.494Z,6.82
2022-11-05T08:22:54.240Z,6.83
2022-11-05T08:25:39.675Z,6.86
2022-11-05T08:28:25.738Z,6.84
2022-11-05T08:31:10.544Z,6.91
2022-11-05T08:34:02.189Z,6.93
2022-11-05T08:36:47.447Z,6.97
2022-11-05T08:39:32.573Z,7.00
2022-11-05T08:42:17.908Z,6.99
2022-11-05T08:45:03.301Z,7.03
2022-11-05T08:47:48.045Z,7.07
2022-11-05T08:50:33.786Z,7.04
2022-11-05T08:53:18.713Z,7.01
2022-11-05T08:56:03.627Z,7.02
2022-11-05T08:58:49.125Z,7.01
2022-11-05T09:01:34.377Z,7.04
2022-11-05T09:04:19.861Z,7.08
2022-11-05T09:07:04.489Z,7.12
2022-11-05T09:09:49.427Z,7.13
2022-11-05T09:12:34.491Z,7.24
2022-11-05T09:15:19.578Z,7.37
2022-11-05T09:18:07.628Z,7.49
2022-11-05T09:20:52.441Z,7.51
2022-11-05T09:23:37.259Z,7.42
2022-11-05T09:26:22.343Z,7.35
2022-11-05T09:29:11.653Z,7.35
2022-11-05T09:31:58.941Z,7.39
2022-11-05T09:34:44.367Z,7.44
2022-11-05T09:37:29.159Z,7.46
2022-11-05T09:40:17.551Z,7.57
2022-11-05T09:43:03.871Z,7.65
2022-11-05T09:45:53.419Z,7.71
2022-11-05T09:48:39.534Z,7.77
2022-11-05T09:51:24.488Z,7.79
2022-11-05T09:54:11.415Z,7.81
2022-11-05T09:56:55.976Z,7.85
2022-11-05T10:00:08.906Z,7.80
2022-11-05T10:03:13.256Z,7.75
2022-11-05T10:06:07.786Z,7.82
2022-11-05T10:09:01.290Z,7.81
2022-11-05T10:12:04.116Z,7.73
2022-11-05T10:15:49.550Z,7.76
2022-11-05T10:18:38.799Z,7.87
2022-11-05T10:21:44.314Z,7.82
2022-11-05T10:24:29.328Z,7.80
2022-11-05T10:27:24.823Z,7.78
2022-11-05T10:30:14.675Z,7.66
2022-11-05T10:33:02.582Z,7.59
2022-11-05T10:35:50.571Z,7.57
2022-11-05T10:38:35.676Z,7.58
2022-11-05T10:41:41.893Z,7.68
2022-11-05T10:44:37.095Z,7.78
2022-11-05T10:47:27.988Z,7.85
2022-11-05T10:50:33.594Z,7.78
2022-11-05T10:53:22.784Z,7.80
2022-11-05T10:56:28.010Z,7.78
2022-11-05T10:59:27.753Z,7.81
2022-11-05T11:02:22.406Z,7.84
2022-11-05T11:05:10.329Z,7.85
2022-11-05T11:08:12.852Z,7.85
2022-11-05T11:11:01.612Z,7.91
2022-11-05T11:14:09.352Z,7.89
2022-11-05T11:16:56.990Z,7.92
2022-11-05T11:19:41.633Z,7.92
2022-11-05T11:22:26.402Z,7.89
2022-11-05T11:25:24.361Z,7.86
2022-11-05T11:28:17.896Z,7.87
2022-11-05T11:31:20.811Z,7.90
2022-11-05T11:34:12.233Z,7.91
2022-11-05T11:37:12.919Z,7.93
2022-11-05T11:40:12.391Z,7.93
2022-11-05T11:43:00.870Z,7.92
2022-11-05T11:45:54.288Z,7.93
2022-11-05T11:48:40.561Z,7.93
2022-11-05T11:51:30.149Z,7.99
2022-11-05T11:54:20.621Z,8.03
2022-11-05T11:57:27.636Z,8.03
2022-11-05T12:00:13.759Z,8.04
2022-11-05T12:03:08.689Z,8.04
2022-11-05T12:06:27.804Z,8.09
2022-11-05T12:09:27.991Z,8.02
2022-11-05T12:12:16.344Z,7.99
2022-11-05T12:15:24.509Z,7.95
2022-11-05T12:18:31.227Z,7.91
2022-11-05T12:21:51.416Z,7.86
2022-11-05T12:24:36.433Z,7.88
2022-11-05T12:27:36.291Z,7.85
2022-11-05T12:30:21.623Z,7.80
2022-11-05T12:33:25.354Z,7.76
2022-11-05T12:36:13.971Z,7.75
2022-11-05T12:39:05.040Z,7.73
2022-11-05T12:41:52.726Z,7.73
2022-11-05T12:44:43.692Z,7.75
2022-11-05T12:47:28.543Z,7.77
2022-11-05T12:50:50.515Z,7.81
2022-11-05T12:53:53.060Z,7.80
2022-11-05T12:57:02.934Z,7.85
2022-11-05T13:00:12.485Z,7.91
2022-11-05T13:03:15.916Z,7.92
2022-11-05T13:06:07.136Z,7.92
2022-11-05T13:09:01.748Z,7.91
2022-11-05T13:12:04.513Z,7.89
2022-11-05T13:15:21.304Z,7.85
2022-11-05T13:18:13.866Z,7.79
2022-11-05T13:21:04.752Z,7.74
2022-11-05T13:24:18.231Z,7.72
2022-11-05T13:27:17.733Z,7.69
2022-11-05T13:30:05.455Z,7.67
2022-11-05T13:33:03.519Z,7.66
2022-11-05T13:36:11.381Z,7.68
2022-11-05T13:39:08.554Z,7.67
2022-11-05T13:42:05.434Z,7.63
2022-11-05T13:45:24.089Z,7.62
2022-11-05T13:48:24.220Z,7.60
2022-11-05T13:51:27.652Z,7.58
2022-11-05T13:54:34.315Z,7.56
2022-11-05T13:57:33.433Z,7.55
2022-11-05T14:00:29.379Z,7.53
2022-11-05T14:03:19.909Z,7.51
2022-11-05T14:06:07.799Z,7.53
2022-11-05T14:08:58.148Z,7.51
2022-11-05T14:11:49.989Z,7.54
2022-11-05T14:14:44.785Z,7.54
2022-11-05T14:17:54.622Z,7.53
2022-11-05T14:20:43.283Z,7.53
2022-11-05T14:23:38.446Z,7.52
2022-11-05T14:26:30.841Z,7.50
2022-11-05T14:29:24.334Z,7.52
2022-11-05T14:32:18.281Z,7.53
2022-11-05T14:35:15.083Z,7.50
2022-11-05T14:37:59.871Z,7.48
2022-11-05T14:40:45.682Z,7.50
2022-11-05T14:43:35.576Z,7.46
2022-11-05T14:46:20.511Z,7.43
2022-11-05T14:49:09.491Z,7.41
2022-11-05T14:51:57.942Z,7.41
2022-11-05T14:54:48.385Z,7.42
2022-11-05T14:57:42.319Z,7.40
2022-11-05T15:00:35.898Z,7.36
2022-11-05T15:03:45.951Z,7.35
2022-11-05T15:06:36.330Z,7.32
2022-11-05T15:09:28.951Z,7.31
2022-11-05T15:12:52.512Z,7.28
2022-11-05T15:15:43.875Z,7.25
2022-11-05T15:18:34.486Z,7.25
2022-11-05T15:21:20.890Z,7.22
2022-11-05T15:24:07.804Z,7.20
2022-11-05T15:27:00.655Z,7.17
2022-11-05T15:29:45.642Z,7.14
2022-11-05T15:32:35.896Z,7.11
2022-11-05T15:35:28.920Z,7.12
2022-11-05T15:38:29.772Z,7.10
2022-11-05T15:41:23.684Z,7.08
2022-11-05T15:44:27.569Z,7.06
2022-11-05T15:47:18.217Z,7.05
2022-11-05T15:50:13.090Z,7.05
2022-11-05T15:53:20.636Z,7.01
2022-11-05T15:56:09.918Z,7.02
2022-11-05T15:59:00.352Z,7.00
2022-11-05T16:01:48.347Z,6.99
2022-11-05T16:04:34.358Z,7.01
2022-11-05T16:07:19.276Z,7.01
2022-11-05T16:10:10.032Z,7.03
2022-11-05T16:13:37.106Z,7.03
2022-11-05T16:16:33.221Z,7.04
2022-11-05T16:19:39.821Z,7.07
2022-11-05T16:22:42.967Z,7.06
2022-11-05T16:25:39.559Z,7.07
2022-11-05T16:28:29.508Z,7.07
2022-11-05T16:31:14.375Z,7.07
2022-11-05T16:33:59.576Z,7.08
2022-11-05T16:36:44.428Z,7.07
2022-11-05T16:39:29.377Z,7.06
2022-11-05T16:42:36.544Z,7.08
2022-11-05T16:45:24.480Z,7.11
2022-11-05T16:48:11.965Z,7.12
2022-11-05T16:50:57.128Z,7.12
2022-11-05T16:53:42.367Z,7.14
2022-11-05T16:56:28.147Z,7.13
2022-11-05T16:59:13.168Z,7.17
2022-11-05T17:01:58.512Z,7.16
2022-11-05T17:04:43.345Z,7.20
2022-11-05T17:07:27.999Z,7.21
2022-11-05T17:10:13.303Z,7.19
2022-11-05T17:12:57.842Z,7.20
2022-11-05T17:15:44.975Z,7.23
2022-11-05T17:18:29.882Z,7.21
2022-11-05T17:21:14.835Z,7.24
2022-11-05T17:23:59.512Z,7.24
2022-11-05T17:26:44.501Z,7.28
2022-11-05T17:29:29.445Z,7.29
2022-11-05T17:32:14.272Z,7.31
2022-11-05T17:34:59.297Z,7.31
2022-11-05T17:37:44.462Z,7.31
2022-11-05T17:40:29.759Z,7.33
2022-11-05T17:43:15.293Z,7.34
2022-11-05T17:46:04.565Z,7.36
2022-11-05T17:48:49.427Z,7.37
2022-11-05T17:51:34.441Z,7.40
2022-11-05T17:54:19.351Z,7.43
2022-11-05T17:57:05.148Z,7.46
2022-11-05T17:59:49.594Z,7.46
2022-11-05T18:02:34.872Z,7.50
2022-11-05T18:05:21.208Z,7.51
2022-11-05T18:08:07.026Z,7.53
2022-11-05T18:10:52.260Z,7.55
2022-11-05T18:13:37.102Z,7.56
2022-11-05T18:16:22.250Z,7.61
2022-11-05T18:19:07.243Z,7.63
2022-11-05T18:21:53.146Z,7.62
2022-11-05T18:24:38.176Z,7.67
2022-11-05T18:27:27.047Z,7.67
2022-11-05T18:30:14.667Z,7.68
2022-11-05T18:32:59.520Z,7.67
2022-11-05T18:35:44.833Z,7.69
2022-11-05T18:38:29.650Z,7.70
2022-11-05T18:41:15.957Z,7.72
2022-11-05T18:44:02.561Z,7.72
2022-11-05T18:47:03.938Z,7.73
2022-11-05T18:49:48.636Z,7.71
2022-11-05T18:52:33.746Z,7.75
2022-11-05T18:55:18.959Z,7.77
2022-11-05T18:58:03.554Z,7.77
2022-11-05T19:00:48.539Z,7.77
2022-11-05T19:03:33.549Z,7.77
2022-11-05T19:06:18.404Z,7.77
2022-11-05T19:09:04.857Z,7.78
2022-11-05T19:11:50.315Z,7.77
2022-11-05T19:14:35.517Z,7.77
2022-11-05T19:17:20.247Z,7.78
2022-11-05T19:20:06.611Z,7.81
2022-11-05T19:22:51.334Z,7.77
2022-11-05T19:25:37.348Z,7.77
2022-11-05T19:28:22.812Z,7.80
2022-11-05T19:31:14.284Z,7.78
2022-11-05T19:34:02.407Z,7.79
2022-11-05T19:36:47.130Z,7.78
2022-11-05T19:39:32.255Z,7.80
2022-11-05T19:42:17.017Z,7.79
2022-11-05T19:45:23.066Z,7.79
2022-11-05T19:48:07.628Z,7.80
2022-11-05T19:50:52.906Z,7.79
2022-11-05T19:53:38.466Z,7.78
2022-11-05T19:56:26.184Z,7.80
2022-11-05T19:59:11.423Z,7.80
2022-11-05T20:01:56.212Z,7.79
2022-11-05T20:04:41.087Z,7.81
2022-11-05T20:07:26.743Z,7.79
2022-11-05T20:10:11.360Z,7.80
2022-11-05T20:12:56.322Z,7.81
2022-11-05T20:15:41.262Z,7.80
2022-11-05T20:18:27.133Z,7.78
2022-11-05T20:21:11.641Z,7.81
2022-11-05T20:23:57.066Z,7.80
2022-11-05T20:26:42.291Z,7.82
2022-11-05T20:29:34.732Z,7.81
2022-11-05T20:32:20.115Z,7.81
2022-11-05T20:35:05.410Z,7.80
2022-11-05T20:37:53.996Z,7.80
2022-11-05T20:40:39.293Z,7.82
2022-11-05T20:43:29.150Z,7.81
2022-11-05T20:46:17.583Z,7.80
2022-11-05T20:49:02.757Z,7.74
2022-11-05T20:51:47.547Z,7.72
2022-11-05T20:54:32.473Z,7.66
2022-11-05T20:57:17.432Z,7.65
2022-11-05T21:00:06.467Z,7.62
2022-11-05T21:02:51.338Z,7.63
2022-11-05T21:05:36.026Z,7.65
2022-11-05T21:08:21.857Z,7.69
2022-11-05T21:11:06.704Z,7.73
2022-11-05T21:13:51.532Z,7.77
2022-11-05T21:16:36.415Z,7.78
2022-11-05T21:19:23.328Z,7.80
2022-11-05T21:22:07.937Z,7.82
2022-11-05T21:24:52.834Z,7.83
2022-11-05T21:27:43.292Z,7.82
2022-11-05T21:30:28.286Z,7.81
2022-11-05T21:33:14.835Z,7.84
2022-11-05T21:36:08.929Z,7.85
2022-11-05T21:38:54.085Z,7.83
2022-11-05T21:41:39.320Z,7.83
2022-11-05T21:44:24.445Z,7.83
2022-11-05T21:47:09.341Z,7.82
2022-11-05T21:49:54.174Z,7.83
2022-11-05T21:52:57.974Z,7.84
2022-11-05T21:56:01.411Z,7.85
2022-11-05T21:59:04.873Z,7.81
2022-11-05T22:01:50.563Z,7.82
2022-11-05T22:04:38.103Z,7.80
2022-11-05T22:07:32.037Z,7.78
2022-11-05T22:10:19.066Z,7.78
2022-11-05T22:13:03.755Z,7.77
2022-11-05T22:15:55.938Z,7.76
2022-11-05T22:18:40.800Z,7.77
2022-11-05T22:21:25.722Z,7.76
2022-11-05T22:24:10.898Z,7.77
2022-11-05T22:26:55.969Z,7.78
2022-11-05T22:29:41.004Z,7.76
2022-11-05T22:32:26.104Z,7.79
2022-11-05T22:35:10.769Z,7.77
2022-11-05T22:37:55.636Z,7.78
2022-11-05T22:40:40.834Z,7.77
2022-11-05T22:43:25.920Z,7.79
2022-11-05T22:46:14.212Z,7.79
2022-11-05T22:48:59.704Z,7.77
2022-11-05T22:51:45.050Z,7.78
2022-11-05T22:54:33.853Z,7.77
2022-11-05T22:57:21.570Z,7.80
2022-11-05T23:00:14.287Z,7.82
2022-11-05T23:02:59.100Z,7.84
2022-11-05T23:05:43.916Z,7.82
2022-11-05T23:08:47.348Z,7.82
2022-11-05T23:11:34.947Z,7.87
2022-11-05T23:14:20.228Z,7.87
2022-11-05T23:17:23.088Z,7.90
2022-11-05T23:20:34.517Z,7.90
2022-11-05T23:23:38.114Z,7.92
2022-11-05T23:26:41.282Z,7.97
2022-11-05T23:29:26.730Z,8.01
2022-11-05T23:32:23.755Z,8.03
2022-11-05T23:35:08.865Z,8.04
2022-11-05T23:38:12.554Z,8.08
2022-11-05T23:41:20.173Z,8.07
2022-11-05T23:44:40.243Z,8.11
2022-11-05T23:47:43.447Z,8.14
2022-11-05T23:50:33.105Z,8.16
2022-11-05T23:53:20.561Z,8.20
2022-11-05T23:56:10.495Z,8.26
2022-11-05T23:58:55.045Z,8.29
